Crew | Aerofun Virtual



 METAR AND TAF INFORMATION
METAR FOR FAOR
ADDS - METARS form results

(0510 UTC 20 May 2019)
Data provider http://aviationweather.gov/metar/data/
 
METAR text: FAOR 200500Z 34008KT CAVOK 13/01 Q1027 NOSIG
Conditions at: FAOR (JOHANNESBURG/TAM, ZA) observed 0500 UTC 20 May 2019
Temperature: 13.0°C (55°F)
Dewpoint: 1.0°C (34°F) [RH = 44%]
Pressure (altimeter): 30.32 inches Hg (1027.0 mb)
Winds: from the NNW (340 degrees) at 9 MPH (8 knots; 4.1 m/s)
Visibility: 6 or more miles (10+ km)
Ceiling: ceiling and visibility are OK
Clouds: unknown
Weather: no significant weather observed at this time

METAR text: FAOR 200430Z 33008KT 240V020 CAVOK 13/03 Q1026 NOSIG
Conditions at: FAOR (JOHANNESBURG/TAM, ZA) observed 0430 UTC 20 May 2019
Temperature: 13.0°C (55°F)
Dewpoint: 3.0°C (37°F) [RH = 51%]
Pressure (altimeter): 30.30 inches Hg (1026.0 mb)
Winds: from the NNW (330 degrees) at 9 MPH (8 knots; 4.1 m/s)
Visibility: 6 or more miles (10+ km)
Ceiling: ceiling and visibility are OK
Clouds: unknown
Weather: no significant weather observed at this time

Forecast for: FAOR (JOHANNESBURG/TAM, ZA)
Text: TAF FAOR 200400Z 2006/2112 30008KT CAVOK TX21/2013Z TN10/2105Z
Forecast period: 0600 to 2200 UTC 20 May 2019
Forecast type: FROM: standard forecast or significant change
Winds: from the WNW (300 degrees) at 9 MPH (8 knots; 4.1 m/s)
Visibility: 6 or more miles 10+ km)
Ceiling: unknown
Clouds: missing
Weather: no significant weather forecast for this period
Text: BECMG 2022/2024 VRB03KT
Forecast period: 2200 UTC 20 May 2019 to 1200 UTC 21 May 2019
Forecast type: BECOMING: Conditions expected to become as follows by 0000 UTC 21 May 2019
Winds: variable direction winds at 3 MPH (3 knots; 1.5 m/s)
Visibility: 6 or more miles 10+ km)
Ceiling: unknown
Clouds: missing
Weather: no significant weather forecast for this period

 AIRPORT MAP

 RUNWAY INFORMATION

 AIRPORT FREQUENCIES

 AIRPORT NEAR NAVIGATION AIDS